Time;durP1;ratioP1;P1;durP2;ratioP2;P2;SDS_P1;SDS_P2;PMS_P1;PMS_P2;Temp;Humidity;BMP_temperature;BMP_pressure;BME280_temperature;BME280_humidity;BME280_pressure;Samples;Min_cycle;Max_cycle;Signal;HPM_P1;HPM_P2
2022/02/26 00:01:40;;;;;;;;;68.75;52.25;;;;;8.84;50.19;102794.84;5061019;28;47221;-51
2022/02/26 00:04:05;;;;;;;;;31.25;25.50;;;;;8.78;50.36;102791.22;5059669;28;45363;-48
2022/02/26 00:06:31;;;;;;;;;32.00;26.50;;;;;8.80;50.57;102801.75;5059800;28;45292;-48
2022/02/26 00:08:56;;;;;;;;;33.25;25.75;;;;;8.78;50.40;102801.72;5059415;28;45321;-50
2022/02/26 00:11:21;;;;;;;;;34.00;24.75;;;;;8.76;50.50;102800.78;5059332;28;47016;-49
2022/02/26 00:13:47;;;;;;;;;31.25;28.25;;;;;8.75;50.54;102800.72;5059779;28;45322;-47
2022/02/26 00:16:12;;;;;;;;;27.75;22.00;;;;;8.71;50.63;102799.75;5057962;28;45859;-47
2022/02/26 00:18:38;;;;;;;;;29.00;28.00;;;;;8.69;50.42;102804.09;5059696;28;45554;-48
2022/02/26 00:21:03;;;;;;;;;33.00;29.50;;;;;8.69;50.42;102801.47;5059518;28;45196;-45
2022/02/26 00:23:29;;;;;;;;;30.00;27.00;;;;;8.67;50.62;102807.53;5059540;28;45264;-47
2022/02/26 00:25:54;;;;;;;;;32.25;29.00;;;;;8.65;50.79;102796.09;5061621;28;45308;-45
2022/02/26 00:28:20;;;;;;;;;35.75;33.50;;;;;8.62;50.66;102800.41;5063087;28;45213;-45
2022/02/26 00:30:46;;;;;;;;;34.25;32.75;;;;;8.61;50.60;102797.75;5062615;28;46056;-51
2022/02/26 00:33:13;;;;;;;;;39.25;31.00;;;;;8.60;50.60;102803.84;5061846;28;45260;-48
2022/02/26 00:35:39;;;;;;;;;39.50;35.25;;;;;8.57;50.99;102801.16;5062993;28;45318;-50
2022/02/26 00:38:05;;;;;;;;;36.25;33.50;;;;;8.53;50.73;102801.88;5061622;28;45421;-51
2022/02/26 00:40:30;;;;;;;;;32.75;26.75;;;;;8.54;50.72;102801.03;5062522;28;45968;-49
2022/02/26 00:42:55;;;;;;;;;40.50;36.00;;;;;8.51;51.05;102803.59;5062907;28;45287;-52
2022/02/26 00:45:21;;;;;;;;;43.75;34.00;;;;;8.49;50.74;102798.31;5062549;28;45247;-51
2022/02/26 00:47:46;;;;;;;;;39.25;34.00;;;;;8.45;50.77;102805.16;5061601;28;45587;-50
2022/02/26 00:50:11;;;;;;;;;39.25;32.00;;;;;8.47;50.82;102818.34;5062418;28;45603;-49
2022/02/26 00:52:37;;;;;;;;;39.25;35.75;;;;;8.45;51.28;102806.88;5062660;28;45333;-46
2022/02/26 00:55:06;;;;;;;;;41.25;35.00;;;;;8.43;50.83;102819.06;5062491;28;45197;-45
2022/02/26 00:57:31;;;;;;;;;37.75;34.25;;;;;8.40;50.93;102814.63;5062590;28;45165;-46
2022/02/26 00:59:57;;;;;;;;;53.25;41.00;;;;;8.37;51.00;102811.03;5060972;28;47248;-46
2022/02/26 01:02:22;;;;;;;;;41.25;34.00;;;;;8.33;50.81;102810.06;5064991;28;45430;-52
2022/02/26 01:04:49;;;;;;;;;39.25;33.50;;;;;8.34;50.95;102814.47;5062424;28;45592;-50
2022/02/26 01:07:15;;;;;;;;;39.50;31.00;;;;;8.31;50.96;102816.97;5062348;28;45509;-48
2022/02/26 01:09:40;;;;;;;;;38.75;36.50;;;;;8.30;51.04;102816.09;5061928;28;46142;-48
2022/02/26 01:12:08;;;;;;;;;34.00;30.00;;;;;8.27;51.09;102823.00;5062722;28;45271;-51
2022/02/26 01:14:34;;;;;;;;;35.50;31.50;;;;;8.26;51.06;102818.59;5062340;28;45248;-50
2022/02/26 01:17:01;;;;;;;;;37.25;34.00;;;;;8.22;50.96;102820.22;5060770;28;45448;-45
2022/02/26 01:19:27;;;;;;;;;31.75;26.50;;;;;8.20;51.24;102819.31;5062022;28;45967;-51
2022/02/26 01:21:52;;;;;;;;;27.50;27.50;;;;;8.17;51.09;102813.97;5062340;28;45859;-48
2022/02/26 01:24:18;;;;;;;;;31.75;28.25;;;;;8.17;51.11;102815.72;5061910;28;45366;-49
2022/02/26 01:26:44;;;;;;;;;38.75;29.25;;;;;8.14;51.22;102816.50;5062271;28;45398;-50
2022/02/26 01:29:09;;;;;;;;;33.00;24.00;;;;;8.12;51.30;102832.16;5061731;28;46242;-49
2022/02/26 01:31:35;;;;;;;;;28.50;25.00;;;;;8.09;51.07;102826.84;5061671;28;45327;-48
2022/02/26 01:34:00;;;;;;;;;30.00;26.75;;;;;8.09;51.33;102834.69;5060537;28;45284;-48
2022/02/26 01:36:26;;;;;;;;;30.50;28.50;;;;;8.07;51.15;102833.75;5061630;28;45436;-50
2022/02/26 01:38:52;;;;;;;;;34.00;29.50;;;;;8.04;51.14;102832.81;5061776;28;45447;-49
2022/02/26 01:41:18;;;;;;;;;34.50;30.25;;;;;8.03;51.38;102829.28;5061894;28;45258;-50
2022/02/26 01:43:43;;;;;;;;;35.50;30.25;;;;;8.01;51.24;102840.56;5061800;28;45242;-50
2022/02/26 01:46:10;;;;;;;;;32.25;29.50;;;;;7.98;51.23;102841.34;5060287;28;45592;-50
2022/02/26 01:48:36;;;;;;;;;27.50;24.50;;;;;7.95;51.31;102834.28;5061429;28;46324;-48
2022/02/26 01:51:03;;;;;;;;;27.75;20.50;;;;;7.94;51.37;102836.88;5061540;28;45248;-50
2022/02/26 01:53:28;;;;;;;;;31.75;24.75;;;;;7.93;51.49;102835.09;5061520;28;45383;-50
2022/02/26 01:55:54;;;;;;;;;21.00;17.75;;;;;7.90;51.28;102824.50;5061598;28;45257;-48
2022/02/26 01:58:20;;;;;;;;;23.50;19.25;;;;;7.88;51.37;102829.69;5060162;28;48310;-47
2022/02/26 02:00:46;;;;;;;;;20.00;17.00;;;;;7.86;51.28;102828.78;5061269;28;45363;-48
2022/02/26 02:03:11;;;;;;;;;20.25;18.25;;;;;7.84;51.15;102824.34;5062824;28;45312;-47
2022/02/26 02:05:37;;;;;;;;;17.50;14.50;;;;;7.83;51.42;102826.06;5061626;28;45441;-50
2022/02/26 02:08:02;;;;;;;;;24.75;22.50;;;;;7.81;51.41;102818.16;5061224;28;45331;-49
2022/02/26 02:10:27;;;;;;;;;16.75;15.50;;;;;7.78;51.24;102820.69;5059981;28;45441;-47
2022/02/26 02:12:53;;;;;;;;;19.50;16.00;;;;;7.78;51.43;102823.28;5060276;28;45278;-50
2022/02/26 02:15:41;;;;;;;;;16.75;15.25;;;;;7.76;51.51;102825.00;5061271;28;45232;-51
2022/02/26 02:18:09;;;;;;;;;15.00;12.25;;;;;7.72;51.57;102817.00;5061252;28;45580;-51
2022/02/26 02:20:36;;;;;;;;;17.25;14.75;;;;;7.75;51.42;102830.19;5061140;28;45363;-46
2022/02/26 02:23:02;;;;;;;;;21.25;18.50;;;;;7.73;51.67;102829.25;5059858;28;45622;-50
2022/02/26 02:25:30;;;;;;;;;18.50;17.25;;;;;7.71;51.39;102823.06;5060922;28;45256;-48
2022/02/26 02:27:57;;;;;;;;;17.75;13.50;;;;;7.69;51.49;102820.41;5060961;28;45206;-48
2022/02/26 02:30:25;;;;;;;;;24.75;16.50;;;;;7.68;51.56;102826.47;5060716;28;45352;-50
2022/02/26 02:32:51;;;;;;;;;17.50;15.00;;;;;7.64;51.62;102816.75;5061245;28;45406;-51
2022/02/26 02:35:31;;;;;;;;;17.50;13.75;;;;;7.67;51.49;102819.47;5060996;28;45310;-51
2022/02/26 02:37:58;;;;;;;;;17.00;14.25;;;;;7.65;51.68;102819.41;5061016;28;46158;-50
2022/02/26 02:40:25;;;;;;;;;16.25;16.25;;;;;7.64;51.58;102816.75;5060595;28;45538;-50
2022/02/26 02:42:51;;;;;;;;;19.50;16.00;;;;;7.62;51.43;102819.34;5060999;28;45425;-54
2022/02/26 02:45:16;;;;;;;;;17.50;13.00;;;;;7.61;51.73;102814.03;5060413;28;45466;-51
2022/02/26 02:47:42;;;;;;;;;16.25;13.75;;;;;7.60;51.63;102814.91;5060275;28;45417;-50
2022/02/26 02:50:08;;;;;;;;;23.25;16.25;;;;;7.58;51.79;102813.94;5060833;28;45201;-47
2022/02/26 02:52:33;;;;;;;;;14.50;12.25;;;;;7.57;51.68;102804.31;5060899;28;45239;-49
2022/02/26 02:54:59;;;;;;;;;12.50;10.75;;;;;7.56;51.87;102805.16;5060509;28;45370;-48
2022/02/26 02:57:24;;;;;;;;;16.50;14.75;;;;;7.55;51.82;102811.25;5060762;28;46848;-51
2022/02/26 02:59:50;;;;;;;;;19.00;17.00;;;;;7.52;51.93;102812.03;5060587;28;45215;-50
2022/02/26 03:02:15;;;;;;;;;27.00;20.25;;;;;7.51;51.91;102809.34;5062116;28;45175;-50
2022/02/26 03:04:41;;;;;;;;;23.00;21.50;;;;;7.49;51.81;102806.69;5060426;28;45268;-46
2022/02/26 03:07:06;;;;;;;;;23.25;22.25;;;;;7.47;51.85;102800.50;5060367;28;45952;-48
2022/02/26 03:09:31;;;;;;;;;29.25;22.75;;;;;7.46;51.65;102814.47;5042013;28;45259;-48
2022/02/26 03:11:57;;;;;;;;;29.25;25.25;;;;;7.44;51.78;102805.66;5059600;28;45189;-49
2022/02/26 03:14:22;;;;;;;;;32.25;26.75;;;;;7.38;51.73;102801.13;5060361;28;45488;-48
2022/02/26 03:16:48;;;;;;;;;27.25;26.00;;;;;7.39;52.02;102796.78;5060320;28;45356;-47
2022/02/26 03:19:13;;;;;;;;;30.25;26.25;;;;;7.37;51.90;102801.06;5058931;28;45272;-45
2022/02/26 03:21:41;;;;;;;;;37.25;31.00;;;;;7.35;51.95;102790.56;5060458;28;45358;-50
2022/02/26 03:24:10;;;;;;;;;32.50;28.25;;;;;7.32;52.11;102796.59;5060083;28;45335;-47
2022/02/26 03:26:36;;;;;;;;;31.75;25.00;;;;;7.29;52.13;102795.59;5060157;28;47063;-49
2022/02/26 03:29:02;;;;;;;;;37.25;32.50;;;;;7.27;51.82;102799.88;5058764;28;45280;-50
2022/02/26 03:31:27;;;;;;;;;29.50;27.00;;;;;7.25;51.91;102791.13;5060054;28;45440;-51
2022/02/26 03:33:52;;;;;;;;;31.00;27.75;;;;;7.21;52.23;102792.75;5059998;28;45391;-50
2022/02/26 03:36:17;;;;;;;;;27.25;22.75;;;;;7.19;52.28;102790.91;5058883;28;48327;-49
2022/02/26 03:38:43;;;;;;;;;30.00;29.00;;;;;7.14;52.26;102785.53;5059988;28;45315;-49
2022/02/26 03:41:13;;;;;;;;;29.00;26.00;;;;;7.11;51.87;102794.16;5060224;28;45236;-50
2022/02/26 03:43:39;;;;;;;;;29.25;29.25;;;;;7.06;52.13;102790.50;5059957;28;45225;-47
2022/02/26 03:46:05;;;;;;;;;33.50;26.25;;;;;7.06;52.37;102794.84;5059786;28;45226;-48
2022/02/26 03:48:30;;;;;;;;;26.50;25.00;;;;;7.06;52.03;102792.25;5059812;28;45165;-51
2022/02/26 03:50:55;;;;;;;;;30.50;24.00;;;;;7.04;52.01;102794.78;5060314;28;45547;-48
2022/02/26 03:53:21;;;;;;;;;27.75;23.75;;;;;7.03;52.14;102786.91;5059955;28;45174;-47
2022/02/26 03:55:46;;;;;;;;;37.00;32.00;;;;;7.01;52.07;102789.47;5059672;28;46089;-49
2022/02/26 03:58:12;;;;;;;;;26.50;25.75;;;;;6.99;52.00;102792.03;5059771;28;45248;-50
2022/02/26 04:00:38;;;;;;;;;27.25;22.75;;;;;6.97;51.88;102800.66;5059753;28;45386;-50
2022/02/26 04:03:03;;;;;;;;;23.25;22.00;;;;;6.94;52.20;102796.22;5061947;28;45359;-50
2022/02/26 04:05:28;;;;;;;;;25.75;22.75;;;;;6.92;52.03;102799.63;5059588;28;45375;-51
2022/02/26 04:07:54;;;;;;;;;24.25;18.75;;;;;6.89;52.14;102802.13;5059469;28;45335;-48
2022/02/26 04:10:19;;;;;;;;;27.00;24.50;;;;;6.87;52.07;102814.25;5059739;28;45250;-50
2022/02/26 04:12:44;;;;;;;;;22.50;17.25;;;;;6.85;52.22;102813.31;5059690;28;45393;-51
2022/02/26 04:15:10;;;;;;;;;25.75;20.75;;;;;6.81;52.24;102813.19;5059447;28;46251;-49
2022/02/26 04:17:35;;;;;;;;;18.00;15.75;;;;;6.80;52.27;102814.03;5059531;28;45388;-49
2022/02/26 04:20:01;;;;;;;;;25.00;20.00;;;;;6.76;52.16;102812.16;5059894;28;45316;-48
2022/02/26 04:22:26;;;;;;;;;18.75;15.75;;;;;6.73;52.34;102809.44;5059502;28;45456;-52
2022/02/26 04:24:51;;;;;;;;;18.75;12.25;;;;;6.72;52.30;102809.41;5059370;28;45303;-48
2022/02/26 04:27:17;;;;;;;;;16.25;14.50;;;;;6.72;52.21;102810.28;5075109;28;45307;-51
2022/02/26 04:29:42;;;;;;;;;23.25;16.00;;;;;6.69;52.30;102818.00;5059526;28;45383;-51
2022/02/26 04:32:08;;;;;;;;;17.25;15.00;;;;;6.60;52.26;102805.53;5058040;28;45210;-50
2022/02/26 04:34:33;;;;;;;;;20.50;15.50;;;;;6.68;52.40;102826.69;5059283;28;45455;-49
2022/02/26 04:36:59;;;;;;;;;20.75;15.00;;;;;6.66;52.40;102820.50;5059507;28;45396;-49
2022/02/26 04:39:25;;;;;;;;;23.00;20.00;;;;;6.64;52.24;102819.56;5059325;28;45318;-50
2022/02/26 04:41:50;;;;;;;;;19.75;18.75;;;;;6.64;52.58;102823.06;5059245;28;45255;-48
2022/02/26 04:44:15;;;;;;;;;25.50;21.00;;;;;6.63;52.43;102826.50;5059269;28;46135;-51
2022/02/26 04:46:41;;;;;;;;;20.75;20.75;;;;;6.61;52.33;102827.28;5057712;28;45248;-49
2022/02/26 04:49:06;;;;;;;;;23.50;17.25;;;;;6.59;52.55;102824.63;5059258;28;45247;-51
2022/02/26 04:51:32;;;;;;;;;20.75;19.75;;;;;6.59;52.48;102824.63;5059297;28;45403;-50
2022/02/26 04:53:57;;;;;;;;;24.50;20.00;;;;;6.56;52.52;102828.84;5059042;28;46022;-49
2022/02/26 04:56:22;;;;;;;;;25.75;25.25;;;;;6.55;52.49;102824.47;5057876;28;46111;-51
2022/02/26 04:58:48;;;;;;;;;23.75;20.00;;;;;6.52;52.52;102821.75;5059334;28;45252;-48
2022/02/26 05:01:13;;;;;;;;;20.00;18.50;;;;;6.52;52.47;102832.22;5060217;28;45521;-49
2022/02/26 05:03:40;;;;;;;;;20.50;17.50;;;;;6.50;52.49;102821.69;5059649;28;45375;-50
2022/02/26 05:06:06;;;;;;;;;19.50;17.50;;;;;6.48;52.43;102825.97;5059022;28;45303;-51
2022/02/26 05:08:31;;;;;;;;;22.00;21.75;;;;;6.46;52.56;102823.28;5058885;28;45288;-48
2022/02/26 05:10:57;;;;;;;;;21.75;18.25;;;;;6.42;52.60;102816.19;5060923;28;45307;-50
2022/02/26 05:13:23;;;;;;;;;25.00;18.00;;;;;6.41;52.48;102823.97;5062253;28;45380;-48
2022/02/26 05:15:48;;;;;;;;;22.50;21.00;;;;;6.39;52.52;102816.09;5062160;28;45264;-48
2022/02/26 05:18:14;;;;;;;;;23.00;21.50;;;;;6.39;52.48;102823.91;5062506;28;45251;-47
2022/02/26 05:20:39;;;;;;;;;24.00;20.50;;;;;6.34;52.50;102820.25;5062507;28;45328;-47
2022/02/26 05:23:05;;;;;;;;;23.00;17.75;;;;;6.32;52.82;102816.69;5062102;28;46180;-48
2022/02/26 05:25:30;;;;;;;;;28.00;24.00;;;;;6.28;52.39;102814.81;5062144;28;45212;-49
2022/02/26 05:27:55;;;;;;;;;25.00;21.75;;;;;6.29;52.64;102819.16;5062278;28;45576;-48
2022/02/26 05:30:21;;;;;;;;;28.50;23.50;;;;;6.26;52.61;102814.72;5061858;28;45513;-48
2022/02/26 05:32:47;;;;;;;;;27.00;26.50;;;;;6.26;52.70;102816.47;5061973;28;45395;-48
2022/02/26 05:35:12;;;;;;;;;25.75;24.00;;;;;6.24;52.88;102812.88;5062314;28;45277;-47
2022/02/26 05:37:38;;;;;;;;;26.25;26.00;;;;;6.22;52.70;102814.56;5062010;28;45385;-51
2022/02/26 05:40:04;;;;;;;;;29.00;27.50;;;;;6.21;52.88;102820.63;5061867;28;45520;-49
2022/02/26 05:42:30;;;;;;;;;24.25;21.75;;;;;6.17;52.73;102825.72;5061807;28;45325;-48
2022/02/26 05:44:55;;;;;;;;;32.25;31.25;;;;;6.16;52.73;102820.44;5061855;28;45402;-54
2022/02/26 05:47:21;;;;;;;;;28.50;25.75;;;;;6.10;52.67;102813.28;5061762;28;45305;-48
2022/02/26 05:49:46;;;;;;;;;29.25;26.00;;;;;6.12;52.89;102819.44;5061821;28;45261;-49
2022/02/26 05:52:12;;;;;;;;;27.25;23.75;;;;;6.08;52.73;102814.06;5061650;28;46320;-51
2022/02/26 05:54:37;;;;;;;;;22.00;20.75;;;;;6.08;52.84;102821.91;5061646;28;45491;-53
2022/02/26 05:57:04;;;;;;;;;25.75;23.50;;;;;6.06;52.85;102818.31;5061790;28;45333;-52
2022/02/26 05:59:29;;;;;;;;;26.50;25.75;;;;;6.04;52.74;102818.28;5061594;28;45332;-50
2022/02/26 06:01:55;;;;;;;;;24.75;16.75;;;;;6.01;52.81;102821.66;5065377;28;45302;-52
2022/02/26 06:04:20;;;;;;;;;28.00;22.75;;;;;6.00;53.06;102822.50;5061431;28;45154;-48
2022/02/26 06:06:46;;;;;;;;;28.25;24.25;;;;;5.96;52.98;102819.66;5061549;28;45240;-52
2022/02/26 06:09:11;;;;;;;;;27.50;24.75;;;;;5.96;52.99;102824.88;5061421;28;45486;-50
2022/02/26 06:11:36;;;;;;;;;29.50;23.75;;;;;5.94;53.09;102824.81;5061554;28;45344;-53
2022/02/26 06:14:02;;;;;;;;;33.75;25.50;;;;;5.93;52.85;102830.00;5061501;28;45283;-53
2022/02/26 06:16:28;;;;;;;;;19.75;19.00;;;;;5.91;52.92;102831.66;5061233;28;45398;-50
2022/02/26 06:18:53;;;;;;;;;31.00;26.25;;;;;5.89;53.01;102838.50;5061292;28;45457;-53
2022/02/26 06:21:18;;;;;;;;;30.25;27.25;;;;;5.84;52.96;102835.75;5060330;28;46076;-53
2022/02/26 06:23:45;;;;;;;;;32.75;27.75;;;;;5.85;53.18;102843.63;5061184;28;45287;-50
2022/02/26 06:26:11;;;;;;;;;29.50;23.50;;;;;5.83;53.01;102847.88;5061060;28;45279;-49
2022/02/26 06:28:36;;;;;;;;;29.25;23.75;;;;;5.82;53.07;102845.22;5061219;28;45373;-51
2022/02/26 06:31:02;;;;;;;;;29.25;24.25;;;;;5.79;52.98;102838.16;5060889;28;46012;-52
2022/02/26 06:33:27;;;;;;;;;24.75;23.00;;;;;5.78;53.16;102844.22;5061295;28;45279;-50
2022/02/26 06:35:53;;;;;;;;;31.00;27.00;;;;;5.75;53.12;102841.50;5061196;28;45239;-50
2022/02/26 06:38:18;;;;;;;;;24.25;22.25;;;;;5.75;53.06;102845.81;5059865;28;45509;-52
2022/02/26 06:40:43;;;;;;;;;27.50;24.50;;;;;5.72;53.14;102841.34;5059393;28;46929;-51
2022/02/26 06:43:09;;;;;;;;;23.75;22.00;;;;;5.73;53.16;102842.25;5061016;28;45260;-48
2022/02/26 06:45:34;;;;;;;;;21.25;19.50;;;;;5.70;53.16;102843.91;5060757;28;45243;-51
2022/02/26 06:47:59;;;;;;;;;19.50;19.25;;;;;5.68;53.13;102849.91;5059730;28;45509;-50
2022/02/26 06:50:25;;;;;;;;;19.75;19.75;;;;;5.68;53.06;102855.13;5060735;28;45258;-50
2022/02/26 06:52:50;;;;;;;;;23.75;20.75;;;;;5.66;53.10;102844.63;5060971;28;45275;-53
2022/02/26 06:55:16;;;;;;;;;28.75;21.00;;;;;5.65;53.25;102844.56;5059588;28;45264;-49
2022/02/26 06:57:42;;;;;;;;;26.00;23.50;;;;;5.64;53.13;102842.78;5059377;28;45247;-52
2022/02/26 07:00:10;;;;;;;;;22.00;19.25;;;;;5.63;53.16;102846.22;5060173;28;46122;-49
2022/02/26 07:02:36;;;;;;;;;26.50;21.75;;;;;5.63;53.08;102843.63;5064645;28;45316;-51
2022/02/26 07:05:01;;;;;;;;;25.75;23.25;;;;;5.62;53.59;102844.44;5060550;28;45389;-52
2022/02/26 07:07:27;;;;;;;;;22.25;17.25;;;;;5.60;53.24;102838.28;5058967;28;45277;-49
2022/02/26 07:09:52;;;;;;;;;20.00;18.25;;;;;5.60;53.29;102839.16;5060279;28;45315;-49
2022/02/26 07:12:17;;;;;;;;;24.00;19.75;;;;;5.59;53.33;102847.81;5060860;28;45303;-49
2022/02/26 07:14:44;;;;;;;;;65.25;52.00;;;;;5.56;53.37;102841.56;5060483;28;46019;-51
2022/02/26 07:17:09;;;;;;;;;22.25;19.50;;;;;5.58;53.30;102845.16;5060445;28;45224;-53
2022/02/26 07:19:34;;;;;;;;;20.50;18.50;;;;;5.58;53.26;102847.75;5058831;28;45874;-49
2022/02/26 07:22:00;;;;;;;;;15.50;15.25;;;;;5.57;53.47;102840.75;5060553;28;45249;-56
2022/02/26 07:24:26;;;;;;;;;16.50;14.25;;;;;5.56;53.32;102844.19;5058977;28;45252;-50
2022/02/26 07:26:52;;;;;;;;;13.25;12.75;;;;;5.55;53.46;102838.09;5060303;28;45232;-47
2022/02/26 07:29:17;;;;;;;;;21.75;19.25;;;;;5.56;53.24;102847.72;5058676;28;47336;-51
2022/02/26 07:31:43;;;;;;;;;17.50;12.00;;;;;5.56;53.56;102844.19;5060221;28;45536;-50
2022/02/26 07:34:08;;;;;;;;;19.50;12.25;;;;;5.55;53.48;102835.50;5058463;28;45334;-49
2022/02/26 07:36:34;;;;;;;;;20.25;18.50;;;;;5.57;53.57;102852.06;5058819;28;45265;-47
2022/02/26 07:39:00;;;;;;;;;34.25;28.25;;;;;5.58;53.40;102850.38;5059883;28;45532;-51
2022/02/26 07:41:26;;;;;;;;;13.25;12.25;;;;;5.59;53.46;102849.53;5060076;28;45384;-51
2022/02/26 07:43:51;;;;;;;;;20.25;15.50;;;;;5.58;53.41;102845.16;5059978;28;45445;-47
2022/02/26 07:46:16;;;;;;;;;12.25;11.75;;;;;5.62;53.63;102849.66;5059719;28;45390;-47
2022/02/26 07:48:42;;;;;;;;;12.50;11.00;;;;;5.63;53.50;102857.53;5060010;28;45438;-52
2022/02/26 07:51:07;;;;;;;;;15.25;12.75;;;;;5.62;53.51;102847.94;5059883;28;45338;-53
2022/02/26 07:53:33;;;;;;;;;16.00;13.50;;;;;5.66;53.66;102854.16;5059988;28;45792;-50
2022/02/26 07:55:58;;;;;;;;;18.25;16.25;;;;;5.65;53.73;102858.50;5059716;28;45573;-51
2022/02/26 07:58:23;;;;;;;;;16.00;14.75;;;;;5.71;53.58;102852.66;5059796;28;45271;-51
2022/02/26 08:00:49;;;;;;;;;16.25;15.00;;;;;5.73;53.74;102856.19;5059489;28;45327;-53
2022/02/26 08:03:14;;;;;;;;;17.75;17.50;;;;;5.76;53.61;102856.31;5062413;28;45267;-50
2022/02/26 08:05:40;;;;;;;;;14.25;12.75;;;;;5.78;53.60;102852.03;5059719;28;45299;-50
2022/02/26 08:08:05;;;;;;;;;15.75;12.00;;;;;5.80;53.71;102852.13;5059242;28;47053;-52
2022/02/26 08:10:31;;;;;;;;;15.75;14.00;;;;;5.84;53.56;102859.22;5059576;28;45243;-52
2022/02/26 08:12:57;;;;;;;;;16.75;11.25;;;;;5.86;53.86;102853.25;5059619;28;45265;-51
2022/02/26 08:15:25;;;;;;;;;19.75;15.50;;;;;5.91;54.38;102852.53;5058151;28;45341;-52
2022/02/26 08:17:50;;;;;;;;;16.75;14.00;;;;;5.92;53.82;102852.56;5059499;28;46809;-52
2022/02/26 08:20:18;;;;;;;;;15.25;11.25;;;;;6.00;53.76;102858.16;5059452;28;45244;-49
2022/02/26 08:22:44;;;;;;;;;17.75;11.25;;;;;6.05;53.87;102864.44;5058335;28;45418;-50
2022/02/26 08:25:10;;;;;;;;;9.25;9.00;;;;;6.10;53.95;102851.53;5058128;28;45402;-49
2022/02/26 08:27:37;;;;;;;;;13.50;12.25;;;;;6.16;54.18;102857.00;5059305;28;45181;-52
2022/02/26 08:30:08;;;;;;;;;10.75;10.75;;;;;6.20;53.77;102864.13;5059269;28;45196;-50
2022/02/26 08:32:34;;;;;;;;;10.25;9.50;;;;;6.27;53.86;102870.47;5059403;28;45234;-52
2022/02/26 08:35:00;;;;;;;;;13.75;10.00;;;;;6.32;54.02;102855.84;5059423;28;45229;-48
2022/02/26 08:37:26;;;;;;;;;10.25;8.00;;;;;6.39;53.92;102851.75;5058992;28;47135;-50
2022/02/26 08:39:51;;;;;;;;;10.50;9.25;;;;;6.44;54.18;102861.53;5059222;28;45252;-49
2022/02/26 08:42:16;;;;;;;;;11.50;9.75;;;;;6.54;54.11;102869.69;5059463;28;45396;-50
2022/02/26 08:44:42;;;;;;;;;15.25;11.00;;;;;6.60;53.98;102857.78;5059590;28;45517;-50
2022/02/26 08:47:08;;;;;;;;;14.00;11.00;;;;;6.66;54.16;102855.34;5062402;28;47136;-50
2022/02/26 08:49:34;;;;;;;;;21.25;17.75;;;;;6.70;54.17;102848.50;5062696;28;45441;-50
2022/02/26 08:52:00;;;;;;;;;21.00;19.25;;;;;6.81;54.21;102849.78;5062536;28;45465;-48
2022/02/26 08:54:26;;;;;;;;;14.25;12.00;;;;;6.89;54.18;102850.03;5062376;28;45269;-51
2022/02/26 08:56:51;;;;;;;;;13.25;10.25;;;;;6.97;54.13;102861.66;5062158;28;45330;-47
2022/02/26 08:59:17;;;;;;;;;11.50;9.25;;;;;7.05;54.28;102853.22;5062582;28;45358;-48
2022/02/26 09:01:43;;;;;;;;;8.75;7.50;;;;;7.14;54.16;102848.28;5063602;28;45263;-50
2022/02/26 09:04:08;;;;;;;;;10.25;9.00;;;;;7.22;54.35;102848.53;5062374;28;45480;-51
2022/02/26 09:06:35;;;;;;;;;11.25;10.75;;;;;7.29;54.32;102845.28;5062292;28;45272;-48
2022/02/26 09:09:04;;;;;;;;;9.00;7.00;;;;;7.40;54.31;102854.38;5044220;28;45276;-51
2022/02/26 09:11:29;;;;;;;;;9.50;5.25;;;;;7.49;54.21;102852.06;5062181;28;45383;-47
2022/02/26 09:13:55;;;;;;;;;14.00;9.25;;;;;7.57;54.38;102847.09;5060914;28;45389;-48
2022/02/26 09:16:20;;;;;;;;;11.00;8.75;;;;;7.69;54.34;102851.81;5061875;28;45726;-48
2022/02/26 09:18:46;;;;;;;;;10.75;7.50;;;;;7.80;54.35;102849.53;5062501;28;45423;-48
2022/02/26 09:21:13;;;;;;;;;11.00;8.50;;;;;7.90;54.27;102846.34;5062368;28;45267;-49
2022/02/26 09:23:39;;;;;;;;;6.75;6.00;;;;;8.01;54.12;102844.03;5061357;28;45272;-49
2022/02/26 09:26:05;;;;;;;;;10.25;8.50;;;;;8.10;54.23;102844.34;5060554;28;47437;-51
2022/02/26 09:28:35;;;;;;;;;12.00;6.25;;;;;8.22;54.10;102835.06;5062382;28;45276;-51
2022/02/26 09:31:01;;;;;;;;;8.25;8.25;;;;;8.34;54.46;102843.28;5061937;28;45428;-48
2022/02/26 09:33:29;;;;;;;;;7.75;7.00;;;;;8.44;54.32;102833.97;5062153;28;45344;-50
2022/02/26 09:35:55;;;;;;;;;6.25;5.75;;;;;8.54;54.35;102835.09;5060453;28;47415;-46
2022/02/26 09:38:20;;;;;;;;;9.75;7.25;;;;;8.66;54.05;102834.56;5061966;28;45251;-50
2022/02/26 09:40:45;;;;;;;;;11.25;9.75;;;;;8.78;54.02;102840.16;5060627;28;45477;-48
2022/02/26 09:43:12;;;;;;;;;7.75;5.25;;;;;8.90;54.08;102842.19;5060806;28;45941;-46
2022/02/26 09:45:37;;;;;;;;;5.75;5.00;;;;;9.00;54.19;102828.47;5061506;28;46110;-51
2022/02/26 09:48:03;;;;;;;;;8.25;4.50;;;;;9.14;54.04;102835.81;5060815;28;45866;-51
2022/02/26 09:50:28;;;;;;;;;6.00;5.00;;;;;9.25;53.96;102836.97;5061907;28;45276;-48
2022/02/26 09:52:54;;;;;;;;;6.00;5.25;;;;;9.37;54.04;102824.16;5060501;28;45499;-50
2022/02/26 09:55:20;;;;;;;;;4.50;4.00;;;;;9.50;54.05;102833.22;5061538;28;45311;-48
2022/02/26 09:57:45;;;;;;;;;6.75;6.75;;;;;9.62;53.79;102831.72;5060281;28;45458;-53
2022/02/26 10:00:12;;;;;;;;;6.25;4.50;;;;;9.75;53.78;102831.16;5061608;28;45304;-49
2022/02/26 10:02:38;;;;;;;;;6.75;4.00;;;;;9.85;53.78;102829.59;5062652;28;45396;-52
2022/02/26 10:05:09;;;;;;;;;4.00;4.00;;;;;10.00;53.89;102831.69;5061182;28;45192;-49
2022/02/26 10:07:36;;;;;;;;;7.00;6.00;;;;;10.14;53.66;102829.34;5060060;28;46120;-52
2022/02/26 10:10:07;;;;;;;;;5.50;5.50;;;;;10.26;53.61;102824.34;5061509;28;45356;-50
2022/02/26 10:12:33;;;;;;;;;4.50;2.00;;;;;10.39;53.76;102821.16;5061517;28;45422;-52
2022/02/26 10:15:19;;;;;;;;;7.75;4.75;;;;;10.54;53.67;102817.94;5061076;28;46880;-48
2022/02/26 10:17:46;;;;;;;;;4.25;4.25;;;;;10.67;53.94;102815.53;5061510;28;45402;-50
2022/02/26 10:20:13;;;;;;;;;4.25;4.25;;;;;10.80;53.66;102817.50;5061582;28;45349;-51
2022/02/26 10:22:42;;;;;;;;;5.50;5.00;;;;;10.91;53.27;102808.97;5061298;28;45335;-49
2022/02/26 10:25:14;;;;;;;;;10.25;8.00;;;;;11.05;53.26;102810.94;5061165;28;45182;-49
2022/02/26 10:27:42;;;;;;;;;5.00;5.00;;;;;11.18;53.34;102800.63;5061153;28;45250;-50
2022/02/26 10:30:08;;;;;;;;;5.00;4.50;;;;;11.32;53.12;102803.47;5061255;28;45339;-49
2022/02/26 10:32:33;;;;;;;;;6.25;5.00;;;;;11.43;53.20;102803.66;5059729;28;45568;-51
2022/02/26 10:34:59;;;;;;;;;4.25;4.25;;;;;11.57;52.94;102798.56;5061375;28;45383;-49
2022/02/26 10:37:25;;;;;;;;;4.25;4.00;;;;;11.68;52.94;102808.41;5061132;28;45361;-49
2022/02/26 10:39:55;;;;;;;;;3.75;3.75;;;;;11.79;53.11;102805.03;5061260;28;45366;-49
2022/02/26 10:42:31;;;;;;;;;6.25;4.00;;;;;11.90;52.63;102803.44;5061131;28;45494;-52
2022/02/26 10:45:11;;;;;;;;;4.75;3.25;;;;;12.01;52.48;102796.59;5060780;28;45402;-51
2022/02/26 10:47:41;;;;;;;;;5.25;3.50;;;;;12.13;52.59;102794.97;5061337;28;45461;-49
2022/02/26 10:50:26;;;;;;;;;4.00;3.00;;;;;12.24;52.20;102787.16;5059717;28;45304;-50
2022/02/26 10:53:04;;;;;;;;;5.75;3.50;;;;;12.33;52.24;102796.06;5059325;28;45302;-49
2022/02/26 10:56:03;;;;;;;;;3.75;3.00;;;;;12.45;51.92;102794.44;5060618;28;46120;-51
2022/02/26 10:58:29;;;;;;;;;8.25;5.75;;;;;12.55;51.90;102779.59;5048779;28;45289;-49
2022/02/26 11:01:04;;;;;;;;;5.25;4.75;;;;;12.64;52.14;102793.78;5059382;28;45264;-53
2022/02/26 11:03:30;;;;;;;;;5.00;4.00;;;;;12.70;51.84;102785.03;5057955;28;45442;-49
2022/02/26 11:05:56;;;;;;;;;5.00;5.00;;;;;12.78;51.66;102783.34;5060861;28;45224;-48
2022/02/26 11:08:22;;;;;;;;;6.25;4.75;;;;;12.87;51.36;102784.28;5059968;28;45340;-53
2022/02/26 11:10:51;;;;;;;;;5.25;5.00;;;;;12.93;51.25;102779.97;5059264;28;45376;-53
2022/02/26 11:13:19;;;;;;;;;7.75;5.75;;;;;13.00;51.69;102771.22;5060513;28;45257;-49
2022/02/26 11:15:47;;;;;;;;;9.75;8.25;;;;;13.06;51.06;102773.03;5060206;28;46339;-52